Kaisei Maru — JD3114 — position and weather

sailwx.info

Track history (hours):
 
Tides and Currents Weather Stations Pressure Air Temp Water Temp Dewpoint Dewpoint Depression Visibility Wind Speed Wind Dir Waves Ship Positions

Kaisei Maru

Last reported at 2015-Jun-30 04:33 UTC. Time now 2015-Jul-01 06:38 UTC.
Position N 34°08' E 134°59'.

Length 52 m; draft 3.5 m.

Type: Tanker. MMSI: 431001837.

Date/timePositionNaut miles runAvg speedWind from/ knotsBaromVisibWave heightAir tempDewpointWater temp
2015-Jun-30 04:33N 34°08' E 134°59'1212.3
2015-Jun-30 03:33N 34°20' E 134°59'1111.1
2015-Jun-30 02:33N 34°31' E 135°02'8 8.1
2015-Jun-30 01:30N 34°37' E 134°55'6 0.3
2015-Jun-29 07:07N 34°40' E 134°49'610.8
2015-Jun-29 06:33N 34°37' E 134°55'10 9.7
2015-Jun-29 05:33N 34°37' E 135°07'9 9.4
2015-Jun-29 04:33N 34°42' E 135°17'1 1.1
2015-Jun-29 03:33N 34°42' E 135°18'0 0.0
2015-Jun-29 02:33N 34°42' E 135°18'0 0.0
2015-Jun-29 01:33N 34°42' E 135°18'1 0.9
2015-Jun-29 00:33N 34°42' E 135°19'0 0.0
2015-Jun-28 23:33N 34°42' E 135°19'0 0.0
2015-Jun-28 22:33N 34°42' E 135°19'0 0.0
2015-Jun-28 21:33N 34°42' E 135°19'0 0.0
2015-Jun-28 20:33N 34°42' E 135°19'0 0.0
2015-Jun-28 19:33N 34°42' E 135°19'0 0.0
2015-Jun-28 18:33N 34°42' E 135°19'0 0.0
2015-Jun-28 17:33N 34°42' E 135°19'0 0.0
2015-Jun-28 16:33N 34°42' E 135°19'0 0.0
2015-Jun-28 15:33N 34°42' E 135°19'0 0.0
2015-Jun-28 14:33N 34°42' E 135°19'0 0.0
2015-Jun-28 13:33N 34°42' E 135°19'1 1.4
2015-Jun-28 12:33N 34°40' E 135°18'0 0.4
2015-Jun-28 11:33N 34°40' E 135°17'0 0.1
2015-Jun-28 10:33N 34°40' E 135°17'0 0.0
2015-Jun-28 09:33N 34°40' E 135°17'1 0.7
2015-Jun-28 08:33N 34°39' E 135°17'0 0.0
2015-Jun-28 07:33N 34°39' E 135°17'4 4.2
2015-Jun-28 06:33N 34°41' E 135°13'0 0.0
2015-Jun-28 05:33N 34°41' E 135°13'0 0.4
2015-Jun-28 04:33N 34°41' E 135°12'0 0.0
2015-Jun-28 03:33N 34°41' E 135°12'0 0.0
2015-Jun-28 02:33N 34°41' E 135°12'0 0.0
2015-Jun-28 01:33N 34°41' E 135°12'0 0.0
2015-Jun-28 00:33N 34°41' E 135°12'0 0.0
2015-Jun-27 23:33N 34°41' E 135°12'0 0.0
2015-Jun-27 22:33N 34°41' E 135°12'0 0.0
2015-Jun-27 21:33N 34°41' E 135°12'0 0.0
2015-Jun-27 20:33N 34°41' E 135°12'0 0.0
2015-Jun-27 19:33N 34°41' E 135°12'0 0.0
2015-Jun-27 18:33N 34°41' E 135°12'0 0.0
2015-Jun-27 17:33N 34°41' E 135°12'0 0.0
2015-Jun-27 16:33N 34°41' E 135°12'0 0.0
2015-Jun-27 15:33N 34°41' E 135°12'0 0.0
2015-Jun-27 14:33N 34°41' E 135°12'0 0.0
2015-Jun-27 13:33N 34°41' E 135°12'0 0.0
2015-Jun-27 12:33N 34°41' E 135°12'0 0.0
2015-Jun-27 11:33N 34°41' E 135°12'0 0.0
2015-Jun-27 10:33N 34°41' E 135°12'0 0.0
2015-Jun-27 09:33N 34°41' E 135°12'0 0.0
2015-Jun-27 08:33N 34°41' E 135°12'0 0.0
2015-Jun-27 07:33N 34°41' E 135°12'0 0.0
2015-Jun-27 06:33N 34°41' E 135°12'0 0.0
2015-Jun-27 05:33N 34°41' E 135°12'0 0.0
2015-Jun-27 04:33N 34°41' E 135°12'0 0.0
2015-Jun-27 03:33N 34°41' E 135°12'0 0.0
2015-Jun-27 02:33N 34°41' E 135°12'0 0.0
2015-Jun-27 01:33N 34°41' E 135°12'0 0.0
2015-Jun-27 00:33N 34°41' E 135°12'0 0.0
2015-Jun-26 23:33N 34°41' E 135°12'0 0.0
2015-Jun-26 22:33N 34°41' E 135°12'0 0.0
2015-Jun-26 21:33N 34°41' E 135°12'0 0.0
2015-Jun-26 20:33N 34°41' E 135°12'0 0.0
2015-Jun-26 19:33N 34°41' E 135°12'0 0.0
2015-Jun-26 18:33N 34°41' E 135°12'0 0.0
2015-Jun-26 17:33N 34°41' E 135°12'0 0.0
2015-Jun-26 16:33N 34°41' E 135°12'0 0.0
2015-Jun-26 15:33N 34°41' E 135°12'0 0.0
2015-Jun-26 14:33N 34°41' E 135°12'0 0.0
2015-Jun-26 13:33N 34°41' E 135°12'0 0.0
2015-Jun-26 12:33N 34°41' E 135°12'0 0.0
2015-Jun-26 11:33N 34°41' E 135°12'0 0.0
2015-Jun-26 10:33N 34°41' E 135°12'0 0.0
2015-Jun-26 09:33N 34°41' E 135°12'0 0.0
2015-Jun-26 08:33N 34°41' E 135°12'0 0.0
2015-Jun-26 07:33N 34°41' E 135°12'0 0.0
2015-Jun-26 06:33N 34°41' E 135°12'0 0.0
2015-Jun-26 05:33N 34°41' E 135°12'0 0.0
2015-Jun-26 04:32N 34°41' E 135°12'0 0.0
2015-Jun-26 03:33N 34°41' E 135°12'0 0.0
2015-Jun-26 02:33N 34°41' E 135°12'0 0.0
2015-Jun-26 01:33N 34°41' E 135°12'0 0.0
2015-Jun-26 00:33N 34°41' E 135°12'0 0.0
2015-Jun-25 23:33N 34°41' E 135°12'0 0.0
2015-Jun-25 22:33N 34°41' E 135°12'0 0.0
2015-Jun-25 21:33N 34°41' E 135°12'0 0.0
2015-Jun-25 20:33N 34°41' E 135°12'0 0.0
2015-Jun-25 19:33N 34°41' E 135°12'0 0.0
2015-Jun-25 18:33N 34°41' E 135°12'0 0.0
2015-Jun-25 17:33N 34°41' E 135°12'0 0.0
2015-Jun-25 16:33N 34°41' E 135°12'0 0.0
2015-Jun-25 15:33N 34°41' E 135°12'0 0.0
2015-Jun-25 14:33N 34°41' E 135°12'0 0.0
2015-Jun-25 13:33N 34°41' E 135°12'0 0.0
2015-Jun-25 12:33N 34°41' E 135°12'0 0.0
2015-Jun-25 11:33N 34°41' E 135°12'0 0.0
2015-Jun-25 10:33N 34°41' E 135°12'0 0.0
2015-Jun-25 09:33N 34°41' E 135°12'0 0.0
2015-Jun-25 08:33N 34°41' E 135°12'0 0.0
2015-Jun-25 07:33N 34°41' E 135°12'0 0.0
2015-Jun-25 06:33N 34°41' E 135°12'0 0.0
2015-Jun-25 05:33N 34°41' E 135°12'0 0.0
2015-Jun-25 04:33N 34°41' E 135°12'0 0.0
2015-Jun-25 03:33N 34°41' E 135°12'0 0.0
2015-Jun-25 02:33N 34°41' E 135°12'0 0.0
2015-Jun-25 01:33N 34°41' E 135°12'0 0.0
2015-Jun-25 00:33N 34°41' E 135°12'0 0.0
2015-Jun-24 23:33N 34°41' E 135°12'0 0.0
2015-Jun-24 22:33N 34°41' E 135°12'0 0.0
2015-Jun-24 21:33N 34°41' E 135°12'0 0.0
2015-Jun-24 20:33N 34°41' E 135°12'0 0.0
2015-Jun-24 19:33N 34°41' E 135°12'0 0.0
2015-Jun-24 18:33N 34°41' E 135°12'0 0.0
2015-Jun-24 17:33N 34°41' E 135°12'0 0.0
2015-Jun-24 16:33N 34°41' E 135°12'0 0.0
2015-Jun-24 15:33N 34°41' E 135°12'0 0.0
2015-Jun-24 14:33N 34°41' E 135°12'0 0.0
2015-Jun-24 13:33N 34°41' E 135°12'0 0.0
2015-Jun-24 12:33N 34°41' E 135°12'0 0.0
2015-Jun-24 11:33N 34°41' E 135°12'0 0.0
2015-Jun-24 10:33N 34°41' E 135°12'0 0.0
2015-Jun-24 09:33N 34°41' E 135°12'0 0.0
2015-Jun-24 08:33N 34°41' E 135°12'0 0.0
2015-Jun-24 07:33N 34°41' E 135°12'0 0.0
2015-Jun-24 06:33N 34°41' E 135°12'0 0.0
2015-Jun-24 05:33N 34°41' E 135°12'0 0.0
2015-Jun-24 04:33N 34°41' E 135°12'0 0.0
2015-Jun-24 03:33N 34°41' E 135°12'0 0.0
2015-Jun-24 02:33N 34°41' E 135°12'0 0.0
2015-Jun-24 01:33N 34°41' E 135°12'0 0.0
2015-Jun-24 00:33N 34°41' E 135°12'0 0.0
2015-Jun-23 23:33N 34°41' E 135°12'0 0.0
2015-Jun-23 22:33N 34°41' E 135°12'0 0.0
2015-Jun-23 21:33N 34°41' E 135°12'0 0.0
2015-Jun-23 20:33N 34°41' E 135°12'0 0.0
2015-Jun-23 19:33N 34°41' E 135°12'0 0.0
2015-Jun-23 19:06N 34°41' E 135°12'3 0.1
2015-Jun-22 19:33N 34°38' E 135°10'0 0.0
2015-Jun-22 18:33N 34°38' E 135°10'0 0.0
2015-Jun-22 17:33N 34°38' E 135°10'3 3.4
2015-Jun-22 16:33N 34°35' E 135°08'1110.5
2015-Jun-22 15:33N 34°25' E 135°03'1111.5
2015-Jun-22 14:33N 34°14' E 134°59'  
Track history (hours):
 
Tides and Currents Weather Stations Pressure Air Temp Water Temp Dewpoint Dewpoint Depression Visibility Wind Speed Wind Dir Waves Ship Positions

Kaisei Maru

Last reported at 2015-Jun-30 04:33 UTC. Time now 2015-Jul-01 06:38 UTC.
Position N 34°08' E 134°59'.

Length 52 m; draft 3.5 m.

Type: Tanker. MMSI: 431001837.

Date/timePositionNaut miles runAvg speedWind from/ knotsBaromVisibWave heightAir tempDewpointWater temp
2015-Jun-30 04:33N 34°08' E 134°59'1212.3
2015-Jun-30 03:33N 34°20' E 134°59'1111.1
2015-Jun-30 02:33N 34°31' E 135°02'8 8.1
2015-Jun-30 01:30N 34°37' E 134°55'6 0.3
2015-Jun-29 07:07N 34°40' E 134°49'610.8
2015-Jun-29 06:33N 34°37' E 134°55'10 9.7
2015-Jun-29 05:33N 34°37' E 135°07'9 9.4
2015-Jun-29 04:33N 34°42' E 135°17'1 1.1
2015-Jun-29 03:33N 34°42' E 135°18'0 0.0
2015-Jun-29 02:33N 34°42' E 135°18'0 0.0
2015-Jun-29 01:33N 34°42' E 135°18'1 0.9
2015-Jun-29 00:33N 34°42' E 135°19'0 0.0
2015-Jun-28 23:33N 34°42' E 135°19'0 0.0
2015-Jun-28 22:33N 34°42' E 135°19'0 0.0
2015-Jun-28 21:33N 34°42' E 135°19'0 0.0
2015-Jun-28 20:33N 34°42' E 135°19'0 0.0
2015-Jun-28 19:33N 34°42' E 135°19'0 0.0
2015-Jun-28 18:33N 34°42' E 135°19'0 0.0
2015-Jun-28 17:33N 34°42' E 135°19'0 0.0
2015-Jun-28 16:33N 34°42' E 135°19'0 0.0
2015-Jun-28 15:33N 34°42' E 135°19'0 0.0
2015-Jun-28 14:33N 34°42' E 135°19'0 0.0
2015-Jun-28 13:33N 34°42' E 135°19'1 1.4
2015-Jun-28 12:33N 34°40' E 135°18'0 0.4
2015-Jun-28 11:33N 34°40' E 135°17'0 0.1
2015-Jun-28 10:33N 34°40' E 135°17'0 0.0
2015-Jun-28 09:33N 34°40' E 135°17'1 0.7
2015-Jun-28 08:33N 34°39' E 135°17'0 0.0
2015-Jun-28 07:33N 34°39' E 135°17'4 4.2
2015-Jun-28 06:33N 34°41' E 135°13'0 0.0
2015-Jun-28 05:33N 34°41' E 135°13'0 0.4
2015-Jun-28 04:33N 34°41' E 135°12'0 0.0
2015-Jun-28 03:33N 34°41' E 135°12'0 0.0
2015-Jun-28 02:33N 34°41' E 135°12'0 0.0
2015-Jun-28 01:33N 34°41' E 135°12'0 0.0
2015-Jun-28 00:33N 34°41' E 135°12'0 0.0
2015-Jun-27 23:33N 34°41' E 135°12'0 0.0
2015-Jun-27 22:33N 34°41' E 135°12'0 0.0
2015-Jun-27 21:33N 34°41' E 135°12'0 0.0
2015-Jun-27 20:33N 34°41' E 135°12'0 0.0
2015-Jun-27 19:33N 34°41' E 135°12'0 0.0
2015-Jun-27 18:33N 34°41' E 135°12'0 0.0
2015-Jun-27 17:33N 34°41' E 135°12'0 0.0
2015-Jun-27 16:33N 34°41' E 135°12'0 0.0
2015-Jun-27 15:33N 34°41' E 135°12'0 0.0
2015-Jun-27 14:33N 34°41' E 135°12'0 0.0
2015-Jun-27 13:33N 34°41' E 135°12'0 0.0
2015-Jun-27 12:33N 34°41' E 135°12'0 0.0
2015-Jun-27 11:33N 34°41' E 135°12'0 0.0
2015-Jun-27 10:33N 34°41' E 135°12'0 0.0
2015-Jun-27 09:33N 34°41' E 135°12'0 0.0
2015-Jun-27 08:33N 34°41' E 135°12'0 0.0
2015-Jun-27 07:33N 34°41' E 135°12'0 0.0
2015-Jun-27 06:33N 34°41' E 135°12'0 0.0
2015-Jun-27 05:33N 34°41' E 135°12'0 0.0
2015-Jun-27 04:33N 34°41' E 135°12'0 0.0
2015-Jun-27 03:33N 34°41' E 135°12'0 0.0
2015-Jun-27 02:33N 34°41' E 135°12'0 0.0
2015-Jun-27 01:33N 34°41' E 135°12'0 0.0
2015-Jun-27 00:33N 34°41' E 135°12'0 0.0
2015-Jun-26 23:33N 34°41' E 135°12'0 0.0
2015-Jun-26 22:33N 34°41' E 135°12'0 0.0
2015-Jun-26 21:33N 34°41' E 135°12'0 0.0
2015-Jun-26 20:33N 34°41' E 135°12'0 0.0
2015-Jun-26 19:33N 34°41' E 135°12'0 0.0
2015-Jun-26 18:33N 34°41' E 135°12'0 0.0
2015-Jun-26 17:33N 34°41' E 135°12'0 0.0
2015-Jun-26 16:33N 34°41' E 135°12'0 0.0
2015-Jun-26 15:33N 34°41' E 135°12'0 0.0
2015-Jun-26 14:33N 34°41' E 135°12'0 0.0
2015-Jun-26 13:33N 34°41' E 135°12'0 0.0
2015-Jun-26 12:33N 34°41' E 135°12'0 0.0
2015-Jun-26 11:33N 34°41' E 135°12'0 0.0
2015-Jun-26 10:33N 34°41' E 135°12'0 0.0
2015-Jun-26 09:33N 34°41' E 135°12'0 0.0
2015-Jun-26 08:33N 34°41' E 135°12'0 0.0
2015-Jun-26 07:33N 34°41' E 135°12'0 0.0
2015-Jun-26 06:33N 34°41' E 135°12'0 0.0
2015-Jun-26 05:33N 34°41' E 135°12'0 0.0
2015-Jun-26 04:32N 34°41' E 135°12'0 0.0
2015-Jun-26 03:33N 34°41' E 135°12'0 0.0
2015-Jun-26 02:33N 34°41' E 135°12'0 0.0
2015-Jun-26 01:33N 34°41' E 135°12'0 0.0
2015-Jun-26 00:33N 34°41' E 135°12'0 0.0
2015-Jun-25 23:33N 34°41' E 135°12'0 0.0
2015-Jun-25 22:33N 34°41' E 135°12'0 0.0
2015-Jun-25 21:33N 34°41' E 135°12'0 0.0
2015-Jun-25 20:33N 34°41' E 135°12'0 0.0
2015-Jun-25 19:33N 34°41' E 135°12'0 0.0
2015-Jun-25 18:33N 34°41' E 135°12'0 0.0
2015-Jun-25 17:33N 34°41' E 135°12'0 0.0
2015-Jun-25 16:33N 34°41' E 135°12'0 0.0
2015-Jun-25 15:33N 34°41' E 135°12'0 0.0
2015-Jun-25 14:33N 34°41' E 135°12'0 0.0
2015-Jun-25 13:33N 34°41' E 135°12'0 0.0
2015-Jun-25 12:33N 34°41' E 135°12'0 0.0
2015-Jun-25 11:33N 34°41' E 135°12'0 0.0
2015-Jun-25 10:33N 34°41' E 135°12'0 0.0
2015-Jun-25 09:33N 34°41' E 135°12'0 0.0
2015-Jun-25 08:33N 34°41' E 135°12'0 0.0
2015-Jun-25 07:33N 34°41' E 135°12'0 0.0
2015-Jun-25 06:33N 34°41' E 135°12'0 0.0
2015-Jun-25 05:33N 34°41' E 135°12'0 0.0
2015-Jun-25 04:33N 34°41' E 135°12'0 0.0
2015-Jun-25 03:33N 34°41' E 135°12'0 0.0
2015-Jun-25 02:33N 34°41' E 135°12'0 0.0
2015-Jun-25 01:33N 34°41' E 135°12'0 0.0
2015-Jun-25 00:33N 34°41' E 135°12'0 0.0
2015-Jun-24 23:33N 34°41' E 135°12'0 0.0
2015-Jun-24 22:33N 34°41' E 135°12'0 0.0
2015-Jun-24 21:33N 34°41' E 135°12'0 0.0
2015-Jun-24 20:33N 34°41' E 135°12'0 0.0
2015-Jun-24 19:33N 34°41' E 135°12'0 0.0
2015-Jun-24 18:33N 34°41' E 135°12'0 0.0
2015-Jun-24 17:33N 34°41' E 135°12'0 0.0
2015-Jun-24 16:33N 34°41' E 135°12'0 0.0
2015-Jun-24 15:33N 34°41' E 135°12'0 0.0
2015-Jun-24 14:33N 34°41' E 135°12'0 0.0
2015-Jun-24 13:33N 34°41' E 135°12'0 0.0
2015-Jun-24 12:33N 34°41' E 135°12'0 0.0
2015-Jun-24 11:33N 34°41' E 135°12'0 0.0
2015-Jun-24 10:33N 34°41' E 135°12'0 0.0
2015-Jun-24 09:33N 34°41' E 135°12'0 0.0
2015-Jun-24 08:33N 34°41' E 135°12'0 0.0
2015-Jun-24 07:33N 34°41' E 135°12'0 0.0
2015-Jun-24 06:33N 34°41' E 135°12'0 0.0
2015-Jun-24 05:33N 34°41' E 135°12'0 0.0
2015-Jun-24 04:33N 34°41' E 135°12'0 0.0
2015-Jun-24 03:33N 34°41' E 135°12'0 0.0
2015-Jun-24 02:33N 34°41' E 135°12'0 0.0
2015-Jun-24 01:33N 34°41' E 135°12'0 0.0
2015-Jun-24 00:33N 34°41' E 135°12'0 0.0
2015-Jun-23 23:33N 34°41' E 135°12'0 0.0
2015-Jun-23 22:33N 34°41' E 135°12'0 0.0
2015-Jun-23 21:33N 34°41' E 135°12'0 0.0
2015-Jun-23 20:33N 34°41' E 135°12'0 0.0
2015-Jun-23 19:33N 34°41' E 135°12'0 0.0
2015-Jun-23 19:06N 34°41' E 135°12'3 0.1
2015-Jun-22 19:33N 34°38' E 135°10'0 0.0
2015-Jun-22 18:33N 34°38' E 135°10'0 0.0
2015-Jun-22 17:33N 34°38' E 135°10'3 3.4
2015-Jun-22 16:33N 34°35' E 135°08'1110.5
2015-Jun-22 15:33N 34°25' E 135°03'1111.5
2015-Jun-22 14:33N 34°14' E 134°59'  

Dump ship's entire track history